sensor_id;sensor_type;location;lat;lon;timestamp;pressure;altitude;pressure_sealevel;temperature;humidity
56070;BME280;41944;52.078;-0.058;2023-08-12T00:01:29;101232.72;;;19.51;79.92
56070;BME280;41944;52.078;-0.058;2023-08-12T00:03:56;101235.09;;;19.70;79.40
56070;BME280;41944;52.078;-0.058;2023-08-12T00:06:23;101235.36;;;19.45;80.46
56070;BME280;41944;52.078;-0.058;2023-08-12T00:08:50;101235.27;;;19.36;81.28
56070;BME280;41944;52.078;-0.058;2023-08-12T00:11:17;101232.38;;;19.23;82.17
56070;BME280;41944;52.078;-0.058;2023-08-12T00:13:43;101230.09;;;19.37;81.70
56070;BME280;41944;52.078;-0.058;2023-08-12T00:16:11;101229.35;;;19.38;81.91
56070;BME280;41944;52.078;-0.058;2023-08-12T00:18:38;101222.40;;;19.55;81.23
56070;BME280;41944;52.078;-0.058;2023-08-12T00:21:07;101228.48;;;19.34;82.24
56070;BME280;41944;52.078;-0.058;2023-08-12T00:23:38;101222.81;;;19.44;81.71
56070;BME280;41944;52.078;-0.058;2023-08-12T00:26:06;101221.61;;;19.34;82.05
56070;BME280;41944;52.078;-0.058;2023-08-12T00:28:33;101218.36;;;19.25;82.68
56070;BME280;41944;52.078;-0.058;2023-08-12T00:31:00;101217.97;;;19.13;83.41
56070;BME280;41944;52.078;-0.058;2023-08-12T00:33:27;101214.21;;;18.97;84.49
56070;BME280;41944;52.078;-0.058;2023-08-12T00:35:54;101211.25;;;18.80;85.50
56070;BME280;41944;52.078;-0.058;2023-08-12T00:38:21;101210.91;;;18.87;85.31
56070;BME280;41944;52.078;-0.058;2023-08-12T00:40:49;101211.49;;;18.88;85.22
56070;BME280;41944;52.078;-0.058;2023-08-12T00:43:16;101208.87;;;18.82;85.53
56070;BME280;41944;52.078;-0.058;2023-08-12T00:45:43;101216.31;;;18.64;86.30
56070;BME280;41944;52.078;-0.058;2023-08-12T00:48:12;101217.77;;;18.45;87.59
56070;BME280;41944;52.078;-0.058;2023-08-12T00:50:40;101220.68;;;18.27;88.56
56070;BME280;41944;52.078;-0.058;2023-08-12T00:53:07;101220.24;;;18.31;88.41
56070;BME280;41944;52.078;-0.058;2023-08-12T00:55:35;101220.29;;;18.17;89.28
56070;BME280;41944;52.078;-0.058;2023-08-12T00:58:03;101217.80;;;18.30;88.70
56070;BME280;41944;52.078;-0.058;2023-08-12T01:00:31;101218.99;;;18.24;89.38
56070;BME280;41944;52.078;-0.058;2023-08-12T01:03:00;101213.70;;;18.24;89.51
56070;BME280;41944;52.078;-0.058;2023-08-12T01:05:30;101214.14;;;18.19;89.35
56070;BME280;41944;52.078;-0.058;2023-08-12T01:07:56;101211.96;;;18.08;90.08
56070;BME280;41944;52.078;-0.058;2023-08-12T01:10:26;101208.61;;;18.22;89.29
56070;BME280;41944;52.078;-0.058;2023-08-12T01:13:10;101205.48;;;18.11;89.77
56070;BME280;41944;52.078;-0.058;2023-08-12T01:15:40;101202.39;;;18.14;89.66
56070;BME280;41944;52.078;-0.058;2023-08-12T01:18:10;101201.64;;;18.12;89.79
56070;BME280;41944;52.078;-0.058;2023-08-12T01:20:39;101196.81;;;18.04;89.97
56070;BME280;41944;52.078;-0.058;2023-08-12T01:23:09;101195.03;;;17.93;90.74
56070;BME280;41944;52.078;-0.058;2023-08-12T01:25:37;101193.95;;;17.98;90.45
56070;BME280;41944;52.078;-0.058;2023-08-12T01:28:04;101196.59;;;17.93;90.58
56070;BME280;41944;52.078;-0.058;2023-08-12T01:30:32;101190.08;;;17.81;91.21
56070;BME280;41944;52.078;-0.058;2023-08-12T01:33:04;101190.17;;;17.76;91.68
56070;BME280;41944;52.078;-0.058;2023-08-12T01:35:38;101190.35;;;17.71;92.00
56070;BME280;41944;52.078;-0.058;2023-08-12T01:38:08;101188.23;;;17.68;92.12
56070;BME280;41944;52.078;-0.058;2023-08-12T01:40:37;101185.95;;;17.68;92.32
56070;BME280;41944;52.078;-0.058;2023-08-12T01:43:05;101187.42;;;17.61;92.60
56070;BME280;41944;52.078;-0.058;2023-08-12T01:45:31;101187.06;;;17.48;93.41
56070;BME280;41944;52.078;-0.058;2023-08-12T01:47:58;101186.55;;;17.40;93.83
56070;BME280;41944;52.078;-0.058;2023-08-12T01:50:25;101183.38;;;17.41;94.14
56070;BME280;41944;52.078;-0.058;2023-08-12T01:52:53;101180.19;;;17.31;94.41
56070;BME280;41944;52.078;-0.058;2023-08-12T01:55:19;101178.86;;;17.23;94.88
56070;BME280;41944;52.078;-0.058;2023-08-12T01:57:46;101179.31;;;17.22;94.81
56070;BME280;41944;52.078;-0.058;2023-08-12T02:00:14;101176.48;;;17.10;95.80
56070;BME280;41944;52.078;-0.058;2023-08-12T02:02:42;101180.85;;;17.06;96.59
56070;BME280;41944;52.078;-0.058;2023-08-12T02:05:09;101178.40;;;17.02;96.45
56070;BME280;41944;52.078;-0.058;2023-08-12T02:07:36;101179.87;;;16.91;97.23
56070;BME280;41944;52.078;-0.058;2023-08-12T02:10:04;101177.96;;;16.99;97.02
56070;BME280;41944;52.078;-0.058;2023-08-12T02:12:31;101176.60;;;16.84;97.75
56070;BME280;41944;52.078;-0.058;2023-08-12T02:14:58;101174.15;;;16.75;98.70
56070;BME280;41944;52.078;-0.058;2023-08-12T02:17:25;101174.67;;;16.88;97.66
56070;BME280;41944;52.078;-0.058;2023-08-12T02:19:52;101174.74;;;16.72;98.53
56070;BME280;41944;52.078;-0.058;2023-08-12T02:22:19;101169.53;;;16.71;98.65
56070;BME280;41944;52.078;-0.058;2023-08-12T02:24:45;101168.60;;;16.74;98.50
56070;BME280;41944;52.078;-0.058;2023-08-12T02:27:13;101168.28;;;16.53;99.31
56070;BME280;41944;52.078;-0.058;2023-08-12T02:29:40;101167.00;;;16.57;99.60
56070;BME280;41944;52.078;-0.058;2023-08-12T02:32:08;101165.42;;;16.73;98.69
56070;BME280;41944;52.078;-0.058;2023-08-12T02:34:35;101163.10;;;16.60;98.41
56070;BME280;41944;52.078;-0.058;2023-08-12T02:37:01;101162.80;;;16.49;99.10
56070;BME280;41944;52.078;-0.058;2023-08-12T02:39:28;101166.78;;;16.39;99.55
56070;BME280;41944;52.078;-0.058;2023-08-12T02:41:55;101165.33;;;16.38;99.82
56070;BME280;41944;52.078;-0.058;2023-08-12T02:44:22;101166.21;;;16.35;99.55
56070;BME280;41944;52.078;-0.058;2023-08-12T02:46:49;101163.61;;;16.25;100.00
56070;BME280;41944;52.078;-0.058;2023-08-12T02:49:16;101161.60;;;16.44;98.86
56070;BME280;41944;52.078;-0.058;2023-08-12T02:51:43;101165.33;;;16.30;99.43
56070;BME280;41944;52.078;-0.058;2023-08-12T02:54:10;101163.17;;;16.19;100.00
56070;BME280;41944;52.078;-0.058;2023-08-12T02:56:37;101163.94;;;16.17;100.00
56070;BME280;41944;52.078;-0.058;2023-08-12T02:59:04;101164.02;;;16.08;100.00
56070;BME280;41944;52.078;-0.058;2023-08-12T03:01:32;101162.48;;;16.09;100.00
56070;BME280;41944;52.078;-0.058;2023-08-12T03:03:58;101160.97;;;16.10;100.00
56070;BME280;41944;52.078;-0.058;2023-08-12T03:06:25;101162.03;;;16.02;100.00
56070;BME280;41944;52.078;-0.058;2023-08-12T03:08:52;101166.07;;;16.01;100.00
56070;BME280;41944;52.078;-0.058;2023-08-12T03:11:19;101160.74;;;16.05;100.00
56070;BME280;41944;52.078;-0.058;2023-08-12T03:13:46;101158.95;;;16.11;100.00
56070;BME280;41944;52.078;-0.058;2023-08-12T03:16:14;101164.02;;;16.14;100.00
56070;BME280;41944;52.078;-0.058;2023-08-12T03:18:41;101165.72;;;16.06;100.00
56070;BME280;41944;52.078;-0.058;2023-08-12T03:21:09;101166.97;;;16.04;100.00
56070;BME280;41944;52.078;-0.058;2023-08-12T03:23:37;101164.23;;;16.09;100.00
56070;BME280;41944;52.078;-0.058;2023-08-12T03:26:05;101164.76;;;16.00;100.00
56070;BME280;41944;52.078;-0.058;2023-08-12T03:28:32;101161.68;;;16.08;100.00
56070;BME280;41944;52.078;-0.058;2023-08-12T03:30:59;101162.11;;;15.98;100.00
56070;BME280;41944;52.078;-0.058;2023-08-12T03:33:25;101159.31;;;16.05;100.00
56070;BME280;41944;52.078;-0.058;2023-08-12T03:35:52;101155.80;;;16.11;100.00
56070;BME280;41944;52.078;-0.058;2023-08-12T03:38:19;101155.40;;;16.09;100.00
56070;BME280;41944;52.078;-0.058;2023-08-12T03:40:47;101155.00;;;16.07;100.00
56070;BME280;41944;52.078;-0.058;2023-08-12T03:43:14;101152.16;;;16.19;100.00
56070;BME280;41944;52.078;-0.058;2023-08-12T03:45:42;101151.53;;;16.23;100.00
56070;BME280;41944;52.078;-0.058;2023-08-12T03:48:10;101150.13;;;16.25;100.00
56070;BME280;41944;52.078;-0.058;2023-08-12T03:50:37;101147.77;;;16.17;100.00
56070;BME280;41944;52.078;-0.058;2023-08-12T03:53:06;101146.88;;;16.41;99.92
56070;BME280;41944;52.078;-0.058;2023-08-12T03:55:33;101145.85;;;16.28;99.99
56070;BME280;41944;52.078;-0.058;2023-08-12T03:58:01;101150.54;;;16.25;99.96
56070;BME280;41944;52.078;-0.058;2023-08-12T04:00:29;101146.81;;;16.45;98.96
56070;BME280;41944;52.078;-0.058;2023-08-12T04:02:56;101151.07;;;16.64;98.60
56070;BME280;41944;52.078;-0.058;2023-08-12T04:05:23;101152.20;;;16.75;97.03
56070;BME280;41944;52.078;-0.058;2023-08-12T04:07:50;101151.56;;;16.70;97.28
56070;BME280;41944;52.078;-0.058;2023-08-12T04:10:17;101152.27;;;16.70;96.64
56070;BME280;41944;52.078;-0.058;2023-08-12T04:12:44;101148.21;;;16.84;97.15
56070;BME280;41944;52.078;-0.058;2023-08-12T04:15:12;101145.40;;;16.88;96.66
56070;BME280;41944;52.078;-0.058;2023-08-12T04:17:39;101144.01;;;16.70;96.55
56070;BME280;41944;52.078;-0.058;2023-08-12T04:20:07;101141.56;;;16.70;96.40
56070;BME280;41944;52.078;-0.058;2023-08-12T04:22:35;101142.92;;;16.76;96.70
56070;BME280;41944;52.078;-0.058;2023-08-12T04:25:02;101142.85;;;16.89;96.25
56070;BME280;41944;52.078;-0.058;2023-08-12T04:27:29;101145.25;;;16.63;96.72
56070;BME280;41944;52.078;-0.058;2023-08-12T04:29:57;101140.81;;;16.45;97.53
56070;BME280;41944;52.078;-0.058;2023-08-12T04:32:24;101136.12;;;16.53;97.21
56070;BME280;41944;52.078;-0.058;2023-08-12T04:34:51;101133.78;;;16.56;96.88
56070;BME280;41944;52.078;-0.058;2023-08-12T04:37:18;101133.47;;;16.51;97.13
56070;BME280;41944;52.078;-0.058;2023-08-12T04:39:44;101134.22;;;16.48;98.55
56070;BME280;41944;52.078;-0.058;2023-08-12T04:42:12;101136.70;;;16.40;98.17
56070;BME280;41944;52.078;-0.058;2023-08-12T04:44:39;101135.83;;;16.39;98.16
56070;BME280;41944;52.078;-0.058;2023-08-12T04:47:06;101137.59;;;16.36;98.22
56070;BME280;41944;52.078;-0.058;2023-08-12T04:49:33;101141.32;;;16.05;100.00
56070;BME280;41944;52.078;-0.058;2023-08-12T04:52:00;101138.41;;;15.86;100.00
56070;BME280;41944;52.078;-0.058;2023-08-12T04:54:27;101137.39;;;15.80;100.00
56070;BME280;41944;52.078;-0.058;2023-08-12T04:56:53;101134.03;;;15.75;100.00
56070;BME280;41944;52.078;-0.058;2023-08-12T04:59:20;101128.06;;;15.87;100.00
56070;BME280;41944;52.078;-0.058;2023-08-12T05:01:47;101124.47;;;15.90;100.00
56070;BME280;41944;52.078;-0.058;2023-08-12T05:04:15;101120.12;;;15.82;100.00
56070;BME280;41944;52.078;-0.058;2023-08-12T05:06:42;101122.87;;;15.87;100.00
56070;BME280;41944;52.078;-0.058;2023-08-12T05:09:09;101120.25;;;15.94;100.00
56070;BME280;41944;52.078;-0.058;2023-08-12T05:11:36;101116.09;;;16.00;100.00
56070;BME280;41944;52.078;-0.058;2023-08-12T05:14:03;101112.52;;;16.16;100.00
56070;BME280;41944;52.078;-0.058;2023-08-12T05:16:31;101119.49;;;16.09;100.00
56070;BME280;41944;52.078;-0.058;2023-08-12T05:18:58;101108.88;;;16.12;100.00
56070;BME280;41944;52.078;-0.058;2023-08-12T05:21:25;101106.77;;;16.34;100.00
56070;BME280;41944;52.078;-0.058;2023-08-12T05:23:52;101107.88;;;16.51;100.00
56070;BME280;41944;52.078;-0.058;2023-08-12T05:26:19;101104.64;;;16.61;98.52
56070;BME280;41944;52.078;-0.058;2023-08-12T05:28:46;101097.75;;;16.89;97.78
56070;BME280;41944;52.078;-0.058;2023-08-12T05:31:13;101095.63;;;16.99;96.60
56070;BME280;41944;52.078;-0.058;2023-08-12T05:33:41;101098.72;;;17.13;95.69
56070;BME280;41944;52.078;-0.058;2023-08-12T05:36:07;101101.64;;;17.23;94.53
56070;BME280;41944;52.078;-0.058;2023-08-12T05:38:34;101104.76;;;17.31;93.55
56070;BME280;41944;52.078;-0.058;2023-08-12T05:41:01;101100.42;;;17.24;94.53
56070;BME280;41944;52.078;-0.058;2023-08-12T05:43:28;101101.90;;;17.41;94.19
56070;BME280;41944;52.078;-0.058;2023-08-12T05:45:55;101099.81;;;17.64;92.40
56070;BME280;41944;52.078;-0.058;2023-08-12T05:48:22;101098.59;;;17.68;92.26
56070;BME280;41944;52.078;-0.058;2023-08-12T05:50:49;101097.63;;;17.63;92.31
56070;BME280;41944;52.078;-0.058;2023-08-12T05:53:16;101096.17;;;17.71;91.52
56070;BME280;41944;52.078;-0.058;2023-08-12T05:55:42;101092.75;;;17.85;90.67
56070;BME280;41944;52.078;-0.058;2023-08-12T05:58:10;101095.93;;;17.82;90.93
56070;BME280;41944;52.078;-0.058;2023-08-12T06:00:37;101091.29;;;18.11;88.90
56070;BME280;41944;52.078;-0.058;2023-08-12T06:03:04;101090.12;;;18.22;88.64
56070;BME280;41944;52.078;-0.058;2023-08-12T06:05:32;101087.97;;;18.20;88.37
56070;BME280;41944;52.078;-0.058;2023-08-12T06:07:59;101088.48;;;18.23;88.43
56070;BME280;41944;52.078;-0.058;2023-08-12T06:10:26;101091.67;;;18.39;87.91
56070;BME280;41944;52.078;-0.058;2023-08-12T06:12:53;101096.21;;;18.33;87.65
56070;BME280;41944;52.078;-0.058;2023-08-12T06:15:20;101094.48;;;18.47;87.55
56070;BME280;41944;52.078;-0.058;2023-08-12T06:17:47;101095.15;;;18.62;86.11
56070;BME280;41944;52.078;-0.058;2023-08-12T06:20:15;101092.36;;;18.77;85.70
56070;BME280;41944;52.078;-0.058;2023-08-12T06:22:42;101094.40;;;18.80;85.17
56070;BME280;41944;52.078;-0.058;2023-08-12T06:25:09;101088.73;;;18.84;84.90
56070;BME280;41944;52.078;-0.058;2023-08-12T06:27:37;101091.70;;;19.06;84.37
56070;BME280;41944;52.078;-0.058;2023-08-12T06:30:05;101092.33;;;19.09;84.12
56070;BME280;41944;52.078;-0.058;2023-08-12T06:32:34;101095.00;;;19.08;84.25
56070;BME280;41944;52.078;-0.058;2023-08-12T06:35:02;101093.71;;;19.20;83.57
56070;BME280;41944;52.078;-0.058;2023-08-12T06:37:30;101096.71;;;19.27;83.10
56070;BME280;41944;52.078;-0.058;2023-08-12T06:39:57;101095.44;;;19.42;82.20
56070;BME280;41944;52.078;-0.058;2023-08-12T06:42:24;101099.29;;;19.40;82.70
56070;BME280;41944;52.078;-0.058;2023-08-12T06:44:56;101096.84;;;19.57;82.07
56070;BME280;41944;52.078;-0.058;2023-08-12T06:47:23;101093.79;;;19.62;81.59
56070;BME280;41944;52.078;-0.058;2023-08-12T06:49:51;101093.29;;;19.83;80.21
56070;BME280;41944;52.078;-0.058;2023-08-12T06:52:18;101092.24;;;19.83;80.05
56070;BME280;41944;52.078;-0.058;2023-08-12T06:54:44;101093.62;;;19.83;80.22
56070;BME280;41944;52.078;-0.058;2023-08-12T06:57:12;101089.09;;;19.86;80.77
56070;BME280;41944;52.078;-0.058;2023-08-12T06:59:39;101087.97;;;20.13;79.47
56070;BME280;41944;52.078;-0.058;2023-08-12T07:02:06;101083.44;;;20.22;78.54
56070;BME280;41944;52.078;-0.058;2023-08-12T07:04:34;101082.91;;;20.36;77.92
56070;BME280;41944;52.078;-0.058;2023-08-12T07:07:01;101081.38;;;20.37;77.56
56070;BME280;41944;52.078;-0.058;2023-08-12T07:09:28;101084.34;;;20.47;77.28
56070;BME280;41944;52.078;-0.058;2023-08-12T07:11:54;101084.50;;;20.55;76.80
56070;BME280;41944;52.078;-0.058;2023-08-12T07:14:21;101085.38;;;20.66;76.62
56070;BME280;41944;52.078;-0.058;2023-08-12T07:16:48;101087.53;;;20.69;75.94
56070;BME280;41944;52.078;-0.058;2023-08-12T07:19:15;101086.55;;;20.84;74.90
56070;BME280;41944;52.078;-0.058;2023-08-12T07:21:43;101087.71;;;20.87;74.68
56070;BME280;41944;52.078;-0.058;2023-08-12T07:24:10;101082.36;;;20.86;74.85
56070;BME280;41944;52.078;-0.058;2023-08-12T07:26:37;101083.79;;;20.84;75.07
56070;BME280;41944;52.078;-0.058;2023-08-12T07:29:05;101082.91;;;20.84;74.58
56070;BME280;41944;52.078;-0.058;2023-08-12T07:31:32;101081.27;;;20.83;74.45
56070;BME280;41944;52.078;-0.058;2023-08-12T07:33:59;101080.39;;;20.72;75.07
56070;BME280;41944;52.078;-0.058;2023-08-12T07:36:26;101082.64;;;20.90;74.16
56070;BME280;41944;52.078;-0.058;2023-08-12T07:38:53;101081.64;;;20.97;73.85
56070;BME280;41944;52.078;-0.058;2023-08-12T07:41:20;101081.21;;;21.10;73.11
56070;BME280;41944;52.078;-0.058;2023-08-12T07:43:47;101083.44;;;21.10;73.58
56070;BME280;41944;52.078;-0.058;2023-08-12T07:46:14;101085.86;;;21.26;72.30
56070;BME280;41944;52.078;-0.058;2023-08-12T07:48:41;101082.92;;;21.27;71.88
56070;BME280;41944;52.078;-0.058;2023-08-12T07:51:08;101078.11;;;21.29;71.97
56070;BME280;41944;52.078;-0.058;2023-08-12T07:53:36;101079.03;;;21.34;72.40
56070;BME280;41944;52.078;-0.058;2023-08-12T07:56:03;101078.79;;;21.43;71.33
56070;BME280;41944;52.078;-0.058;2023-08-12T07:58:31;101077.79;;;21.41;70.87
56070;BME280;41944;52.078;-0.058;2023-08-12T08:00:57;101077.76;;;21.31;70.46
56070;BME280;41944;52.078;-0.058;2023-08-12T08:03:25;101079.02;;;21.38;70.92
56070;BME280;41944;52.078;-0.058;2023-08-12T08:05:52;101080.93;;;21.31;71.09
56070;BME280;41944;52.078;-0.058;2023-08-12T08:08:19;101078.85;;;21.37;70.20
56070;BME280;41944;52.078;-0.058;2023-08-12T08:10:46;101076.06;;;21.37;69.88
56070;BME280;41944;52.078;-0.058;2023-08-12T08:13:13;101074.03;;;21.50;69.71
56070;BME280;41944;52.078;-0.058;2023-08-12T08:15:40;101079.01;;;21.60;69.55
56070;BME280;41944;52.078;-0.058;2023-08-12T08:18:07;101083.79;;;21.66;68.86
56070;BME280;41944;52.078;-0.058;2023-08-12T08:20:34;101084.51;;;21.76;69.42
56070;BME280;41944;52.078;-0.058;2023-08-12T08:23:02;101083.92;;;21.94;68.99
56070;BME280;41944;52.078;-0.058;2023-08-12T08:25:30;101077.30;;;22.08;66.57
56070;BME280;41944;52.078;-0.058;2023-08-12T08:27:56;101074.08;;;22.07;66.45
56070;BME280;41944;52.078;-0.058;2023-08-12T08:30:23;101074.66;;;22.02;66.53
56070;BME280;41944;52.078;-0.058;2023-08-12T08:32:50;101074.37;;;22.13;66.17
56070;BME280;41944;52.078;-0.058;2023-08-12T08:35:17;101063.87;;;22.30;64.98
56070;BME280;41944;52.078;-0.058;2023-08-12T08:37:44;101059.88;;;22.47;64.75
56070;BME280;41944;52.078;-0.058;2023-08-12T08:40:11;101060.37;;;22.67;64.55
56070;BME280;41944;52.078;-0.058;2023-08-12T08:42:39;101056.20;;;22.81;63.16
56070;BME280;41944;52.078;-0.058;2023-08-12T08:45:13;101057.47;;;22.87;63.34
56070;BME280;41944;52.078;-0.058;2023-08-12T08:47:41;101060.19;;;22.96;63.54
56070;BME280;41944;52.078;-0.058;2023-08-12T08:50:10;101066.36;;;23.02;62.43
56070;BME280;41944;52.078;-0.058;2023-08-12T08:52:37;101065.12;;;23.01;62.09
56070;BME280;41944;52.078;-0.058;2023-08-12T08:55:05;101062.49;;;23.14;62.76
56070;BME280;41944;52.078;-0.058;2023-08-12T08:57:32;101059.82;;;23.15;62.54
56070;BME280;41944;52.078;-0.058;2023-08-12T09:00:00;101060.27;;;23.19;62.45
56070;BME280;41944;52.078;-0.058;2023-08-12T09:02:27;101061.28;;;23.28;61.72
56070;BME280;41944;52.078;-0.058;2023-08-12T09:04:55;101061.69;;;23.40;61.48
56070;BME280;41944;52.078;-0.058;2023-08-12T09:07:22;101060.03;;;23.53;61.60
56070;BME280;41944;52.078;-0.058;2023-08-12T09:09:52;101054.33;;;23.54;61.57
56070;BME280;41944;52.078;-0.058;2023-08-12T09:12:20;101052.54;;;23.56;60.88
56070;BME280;41944;52.078;-0.058;2023-08-12T09:14:48;101058.21;;;23.60;60.91
56070;BME280;41944;52.078;-0.058;2023-08-12T09:17:15;101051.15;;;23.54;60.54
56070;BME280;41944;52.078;-0.058;2023-08-12T09:19:43;101054.93;;;23.70;61.06
56070;BME280;41944;52.078;-0.058;2023-08-12T09:22:11;101046.38;;;23.72;60.81
56070;BME280;41944;52.078;-0.058;2023-08-12T09:24:39;101042.73;;;23.82;60.87
56070;BME280;41944;52.078;-0.058;2023-08-12T09:27:06;101037.95;;;23.84;59.94
56070;BME280;41944;52.078;-0.058;2023-08-12T09:29:33;101047.73;;;23.88;60.26
56070;BME280;41944;52.078;-0.058;2023-08-12T09:32:19;101048.08;;;23.97;60.01
56070;BME280;41944;52.078;-0.058;2023-08-12T09:34:47;101045.85;;;24.06;59.72
56070;BME280;41944;52.078;-0.058;2023-08-12T09:37:15;101043.51;;;24.12;60.10
56070;BME280;41944;52.078;-0.058;2023-08-12T09:39:42;101037.89;;;24.10;58.67
56070;BME280;41944;52.078;-0.058;2023-08-12T09:42:10;101051.09;;;24.14;58.63
56070;BME280;41944;52.078;-0.058;2023-08-12T09:44:37;101046.57;;;24.12;58.53
56070;BME280;41944;52.078;-0.058;2023-08-12T09:47:06;101047.35;;;24.09;59.26
56070;BME280;41944;52.078;-0.058;2023-08-12T09:49:33;101050.92;;;24.31;59.38
56070;BME280;41944;52.078;-0.058;2023-08-12T09:52:00;101051.56;;;24.21;58.78
56070;BME280;41944;52.078;-0.058;2023-08-12T09:54:28;101056.97;;;24.19;58.33
56070;BME280;41944;52.078;-0.058;2023-08-12T09:56:59;101055.61;;;24.15;58.62
56070;BME280;41944;52.078;-0.058;2023-08-12T09:59:30;101066.54;;;24.19;59.41
56070;BME280;41944;52.078;-0.058;2023-08-12T10:01:58;101068.92;;;24.18;58.75
56070;BME280;41944;52.078;-0.058;2023-08-12T10:04:29;101069.23;;;24.07;59.00
56070;BME280;41944;52.078;-0.058;2023-08-12T10:07:00;101069.13;;;23.95;59.44
56070;BME280;41944;52.078;-0.058;2023-08-12T10:09:29;101064.06;;;23.79;60.20
56070;BME280;41944;52.078;-0.058;2023-08-12T10:11:56;101060.70;;;23.84;60.01
56070;BME280;41944;52.078;-0.058;2023-08-12T10:14:25;101060.61;;;23.85;59.43
56070;BME280;41944;52.078;-0.058;2023-08-12T10:16:53;101059.22;;;23.97;59.20
56070;BME280;41944;52.078;-0.058;2023-08-12T10:19:21;101058.64;;;24.04;59.28
56070;BME280;41944;52.078;-0.058;2023-08-12T10:21:49;101048.30;;;24.18;59.54
56070;BME280;41944;52.078;-0.058;2023-08-12T10:24:21;101048.46;;;24.19;59.54
56070;BME280;41944;52.078;-0.058;2023-08-12T10:26:49;101046.07;;;24.29;57.77
56070;BME280;41944;52.078;-0.058;2023-08-12T10:29:17;101040.75;;;24.34;56.98
56070;BME280;41944;52.078;-0.058;2023-08-12T10:31:46;101042.59;;;24.39;57.03
56070;BME280;41944;52.078;-0.058;2023-08-12T10:34:19;101038.03;;;24.49;56.84
56070;BME280;41944;52.078;-0.058;2023-08-12T10:36:47;101045.21;;;24.57;55.99
56070;BME280;41944;52.078;-0.058;2023-08-12T10:39:15;101043.67;;;24.66;55.71
56070;BME280;41944;52.078;-0.058;2023-08-12T10:41:50;101036.92;;;24.71;55.91
56070;BME280;41944;52.078;-0.058;2023-08-12T10:44:20;101033.12;;;24.77;55.79
56070;BME280;41944;52.078;-0.058;2023-08-12T10:46:50;101031.81;;;24.69;55.10
56070;BME280;41944;52.078;-0.058;2023-08-12T10:49:19;101027.01;;;24.57;55.53
56070;BME280;41944;52.078;-0.058;2023-08-12T10:51:48;101029.89;;;24.54;56.68
56070;BME280;41944;52.078;-0.058;2023-08-12T10:54:17;101029.69;;;24.57;57.56
56070;BME280;41944;52.078;-0.058;2023-08-12T10:57:17;101032.48;;;24.71;56.69
56070;BME280;41944;52.078;-0.058;2023-08-12T10:59:53;101032.66;;;24.81;56.91
56070;BME280;41944;52.078;-0.058;2023-08-12T11:02:23;101027.89;;;24.85;56.63
56070;BME280;41944;52.078;-0.058;2023-08-12T11:04:53;101023.95;;;24.85;57.08
56070;BME280;41944;52.078;-0.058;2023-08-12T11:07:22;101019.49;;;24.84;57.27
56070;BME280;41944;52.078;-0.058;2023-08-12T11:09:54;101021.68;;;24.75;56.12
56070;BME280;41944;52.078;-0.058;2023-08-12T11:12:30;101018.25;;;24.78;56.91
56070;BME280;41944;52.078;-0.058;2023-08-12T11:14:59;101024.87;;;24.80;56.18
56070;BME280;41944;52.078;-0.058;2023-08-12T11:17:32;101012.76;;;24.64;57.01
56070;BME280;41944;52.078;-0.058;2023-08-12T11:20:00;101013.23;;;24.54;58.40
56070;BME280;41944;52.078;-0.058;2023-08-12T11:22:27;101017.32;;;24.34;58.44
56070;BME280;41944;52.078;-0.058;2023-08-12T11:24:54;101017.72;;;24.34;58.56
56070;BME280;41944;52.078;-0.058;2023-08-12T11:27:22;101015.73;;;24.25;58.50
56070;BME280;41944;52.078;-0.058;2023-08-12T11:29:49;101018.19;;;24.33;59.75
56070;BME280;41944;52.078;-0.058;2023-08-12T11:32:17;101012.69;;;24.39;60.33
56070;BME280;41944;52.078;-0.058;2023-08-12T11:34:45;101008.53;;;24.44;60.31
56070;BME280;41944;52.078;-0.058;2023-08-12T11:37:13;101013.90;;;24.53;60.14
56070;BME280;41944;52.078;-0.058;2023-08-12T11:39:40;101011.65;;;24.60;59.10
56070;BME280;41944;52.078;-0.058;2023-08-12T11:42:07;101011.43;;;24.81;58.55
56070;BME280;41944;52.078;-0.058;2023-08-12T11:44:34;101006.41;;;24.92;58.44
56070;BME280;41944;52.078;-0.058;2023-08-12T11:47:01;101006.22;;;25.04;59.06
56070;BME280;41944;52.078;-0.058;2023-08-12T11:49:28;101003.47;;;25.21;57.69
56070;BME280;41944;52.078;-0.058;2023-08-12T11:51:55;100995.21;;;25.44;57.98
56070;BME280;41944;52.078;-0.058;2023-08-12T11:54:23;100999.02;;;25.56;57.15
56070;BME280;41944;52.078;-0.058;2023-08-12T11:56:50;101000.91;;;25.72;56.52
56070;BME280;41944;52.078;-0.058;2023-08-12T11:59:17;100990.16;;;25.91;56.22
56070;BME280;41944;52.078;-0.058;2023-08-12T12:01:48;100994.89;;;26.13;55.56
56070;BME280;41944;52.078;-0.058;2023-08-12T12:04:16;100995.20;;;26.04;55.25
56070;BME280;41944;52.078;-0.058;2023-08-12T12:06:43;100994.08;;;26.03;55.42
56070;BME280;41944;52.078;-0.058;2023-08-12T12:09:11;101001.94;;;25.91;55.31
56070;BME280;41944;52.078;-0.058;2023-08-12T12:11:39;101007.56;;;25.61;56.48
56070;BME280;41944;52.078;-0.058;2023-08-12T12:14:08;101011.01;;;25.47;57.02
56070;BME280;41944;52.078;-0.058;2023-08-12T12:16:38;101006.66;;;25.33;57.67
56070;BME280;41944;52.078;-0.058;2023-08-12T12:19:05;101014.44;;;25.25;57.80
56070;BME280;41944;52.078;-0.058;2023-08-12T12:21:39;101026.22;;;25.03;59.09
56070;BME280;41944;52.078;-0.058;2023-08-12T12:24:07;101021.78;;;24.84;66.58
56070;BME280;41944;52.078;-0.058;2023-08-12T12:26:34;101021.94;;;24.76;69.57
56070;BME280;41944;52.078;-0.058;2023-08-12T12:29:03;101014.74;;;24.75;66.08
56070;BME280;41944;52.078;-0.058;2023-08-12T12:31:32;101020.98;;;24.85;65.93
56070;BME280;41944;52.078;-0.058;2023-08-12T12:34:00;101005.40;;;24.97;63.88
56070;BME280;41944;52.078;-0.058;2023-08-12T12:36:28;101002.71;;;25.09;62.95
56070;BME280;41944;52.078;-0.058;2023-08-12T12:38:55;101003.91;;;25.16;60.99
56070;BME280;41944;52.078;-0.058;2023-08-12T12:41:22;101010.73;;;25.28;61.20